Latest Weather Observations for Macquarie Island*

IDT60801

Issued at 6:32 pm EST Friday 23 June 2017 (issued every 30 minutes, with the page automatically refreshed every 10 minutes)

About weather observations | Map of weather stations | Latest weather observations for ANT | Other Formats
Station Details ID: 300004 Name: MACQUARIE ISLAND Lat: -54.50 Lon: 158.94 Height: 6.0 m
Data from the previous 72 hours. | See also: Recent months at Macquarie Island*
Date/Time
EST
Temp
°C
App
Temp
°C
Dew
Point
°C
Rel
Hum
%
Delta-T
°C
Wind Press
QNH
hPa
Press
MSL
hPa
Rain since
9am
mm
Dir  Spd
km/h
Gust
km/h
Spd
kts
Gust
kts
23/06:30pm 6.9 -5.7 5.7 92 0.5 N 61 80 33 43 983.4 - 0.2
23/06:00pm 7.0 -5.6 5.6 91 0.6 N 61 80 33 43 984.0 984.3 0.2
23/05:30pm 7.0 -4.8 5.8 92 0.5 N 57 76 31 41 984.5 - 0.2
23/05:00pm 7.1 -5.5 5.7 91 0.6 N 61 80 33 43 985.3 - 0.2
23/04:30pm 7.3 -6.5 5.4 88 0.8 N 67 85 36 46 985.9 - 0.2
23/04:04pm 7.3 -5.7 5.4 88 0.8 N 63 83 34 45 986.3 - 0.2
23/04:00pm 7.2 -5.5 5.3 88 0.8 N 61 78 33 42 986.6 - 0.2
23/03:30pm 7.2 -5.8 5.3 88 0.8 N 63 82 34 44 987.4 - 0.2
23/03:00pm 7.2 -5.8 5.3 88 0.9 N 63 82 34 44 987.8 988.1 0.2
23/02:30pm 7.1 -5.6 5.3 88 0.8 N 61 82 33 44 988.6 - 0.2
23/02:24pm 7.1 -5.6 5.3 88 0.8 N 61 82 33 44 988.6 - 0.2
23/02:00pm 7.2 -6.2 5.2 87 0.9 N 65 78 35 42 989.1 - 0.2
23/01:30pm 7.2 -7.0 5.2 87 0.9 N 69 80 37 43 989.6 - 0.2
23/01:14pm 7.2 -6.3 5.0 86 1.0 N 65 83 35 45 989.8 - 0.2
23/01:00pm 7.2 -6.2 5.2 87 0.9 N 65 76 35 41 990.2 - 0.2
23/12:30pm 7.1 -6.7 5.1 87 0.9 N 67 80 36 43 990.7 - 0.2
23/12:07pm 7.1 -5.9 5.3 88 0.8 N 63 82 34 44 991.0 - 0.2
23/12:00pm 7.0 -6.4 5.2 88 0.8 N 65 80 35 43 991.4 991.7 0.2
23/11:30am 7.0 -6.4 5.2 88 0.8 N 65 82 35 44 992.0 - 0.2
23/11:20am 7.0 -6.4 5.3 89 0.8 N 65 83 35 45 992.3 - 0.2
23/11:00am 7.0 -6.4 5.3 89 0.8 N 65 80 35 43 992.8 - 0.2
23/10:33am 7.0 -5.2 5.5 90 0.7 N 59 78 32 42 993.5 - 0.2
23/10:30am 6.7 -5.6 5.2 90 0.7 N 59 72 32 39 993.8 - 0.2
23/10:00am 6.9 -6.1 5.4 90 0.7 N 63 78 34 42 994.2 - 0.2
23/09:30am 7.2 -7.0 5.0 86 1.0 N 69 78 37 42 994.5 - 0.0
23/09:00am 7.1 -7.3 5.1 87 0.9 N 70 82 38 44 995.0 995.3 0.2
23/08:45am 7.1 -6.4 5.1 87 0.9 N 65 85 35 46 995.1 - 0.2
23/08:30am 7.1 -6.7 5.1 87 0.9 N 67 78 36 42 995.3 - 0.2
23/08:00am 6.9 -6.6 4.9 87 0.9 N 65 78 35 42 995.7 - 0.2
23/07:30am 6.9 -6.6 5.1 88 0.8 N 65 80 35 43 995.9 - 0.2
23/07:00am 7.0 -6.9 5.0 87 0.9 N 67 82 36 44 996.0 - 0.2
23/06:30am 6.9 -6.6 4.9 87 0.9 N 65 82 35 44 996.3 - 0.2
23/06:00am 6.9 -6.6 5.1 88 0.8 N 65 78 35 42 996.5 996.8 0.2
23/05:30am 6.9 -7.0 4.7 86 1.0 N 67 80 36 43 996.7 - 0.2
23/05:00am 6.9 -7.4 4.7 86 1.0 N 69 82 37 44 997.0 - 0.2
23/04:30am 6.9 -7.6 4.7 86 1.0 N 70 89 38 48 997.0 - 0.2
23/04:03am 6.9 -7.4 4.7 86 1.0 N 69 87 37 47 997.3 - 0.2
23/04:00am 6.9 -7.4 4.7 86 1.0 N 69 83 37 45 997.3 - 0.2
23/03:30am 6.8 -7.7 4.6 86 1.0 N 70 87 38 47 997.5 - 0.2
23/03:00am 6.8 -7.5 4.6 86 1.0 N 69 82 37 44 998.1 998.4 0.2
23/02:45am 6.7 -7.6 4.5 86 1.0 N 69 87 37 47 998.2 - 0.2
23/02:30am 6.8 -7.7 4.6 86 1.0 N 70 83 38 45 998.3 - 0.2
23/02:13am 6.7 -7.6 4.5 86 1.0 N 69 89 37 48 998.7 - 0.2
23/02:00am 6.8 -7.5 4.6 86 1.0 N 69 82 37 44 998.8 - 0.2
23/01:30am 6.7 -7.8 4.5 86 1.0 N 70 83 38 45 999.5 - 0.2
23/01:00am 6.5 -7.4 4.5 87 0.9 N 67 82 36 44 1000.0 - 0.2
23/12:39am 6.6 -7.4 4.3 85 1.0 N 67 87 36 47 1000.3 - 0.2
23/12:30am 6.5 -7.9 4.2 85 1.0 N 69 83 37 45 1000.5 - 0.2
23/12:00am 6.5 -7.9 4.3 86 1.0 N 69 85 37 46 1000.8 1001.1 0.2
 
Date/Time
EST
Temp
°C
App
Temp
°C
Dew
Point
°C
Rel
Hum
%
Delta-T
°C
Wind Press
QNH
hPa
Press
MSL
hPa
Rain since
9am
mm
Dir  Spd
km/h
Gust
km/h
Spd
kts
Gust
kts
22/11:30pm 6.3 -7.0 4.1 86 0.9 N 63 78 34 42 1001.6 - 0.2
22/11:13pm 6.3 -7.3 4.1 86 0.9 N 65 83 35 45 1001.9 - 0.2
22/11:00pm 6.3 -7.0 4.1 86 0.9 N 63 76 34 41 1002.2 - 0.2
22/10:30pm 6.2 -6.7 4.0 86 0.9 N 61 74 33 40 1003.0 - 0.2
22/10:00pm 6.1 -6.8 3.9 86 0.9 N 61 72 33 39 1003.4 - 0.2
22/09:30pm 6.2 -6.7 4.0 86 0.9 N 61 72 33 39 1004.1 - 0.2
22/09:08pm 6.1 -6.1 3.9 86 0.9 N 57 76 31 41 1004.3 - 0.2
22/09:00pm 6.2 -6.7 4.0 86 0.9 N 61 76 33 41 1004.5 1004.8 0.2
22/08:30pm 6.2 -6.3 3.9 85 1.0 N 59 74 32 40 1005.0 - 0.2
22/08:00pm 6.2 -6.3 3.9 85 1.0 N 59 74 32 40 1005.5 - 0.2
22/07:30pm 6.3 -5.8 4.0 85 1.0 N 57 69 31 37 1006.1 - 0.2
22/07:00pm 6.2 -5.7 4.2 87 0.9 NNW 56 67 30 36 1006.6 - 0.2
22/06:30pm 6.3 -6.2 4.1 86 0.9 NNW 59 70 32 38 1006.9 - 0.2
22/06:00pm 6.2 -5.7 4.4 88 0.8 NNW 56 67 30 36 1007.3 1007.6 0.2
22/05:30pm 6.2 -5.3 4.4 88 0.8 NNW 54 63 29 34 1007.6 - 0.2
22/05:00pm 6.2 -5.9 4.4 88 0.8 NNW 57 69 31 37 1007.8 - 0.2
22/04:30pm 6.1 -4.6 4.4 89 0.7 NNW 50 61 27 33 1008.1 - 0.2
22/04:00pm 6.1 -4.6 4.4 89 0.7 NNW 50 61 27 33 1008.5 - 0.2
22/03:30pm 6.0 -5.1 4.3 89 0.7 NNW 52 61 28 33 1008.7 - 0.2
22/03:00pm 6.1 -5.0 4.3 88 0.8 NNW 52 63 28 34 1009.0 1009.3 0.2
22/02:30pm 6.0 -5.1 4.3 89 0.7 NNW 52 61 28 33 1009.2 - 0.2
22/02:00pm 6.1 -4.6 4.4 89 0.7 NNW 50 59 27 32 1009.4 - 0.2
22/01:30pm 6.1 -4.3 4.4 89 0.7 NNW 48 56 26 30 1009.6 - 0.2
22/01:00pm 6.0 -4.0 4.3 89 0.7 NNW 46 54 25 29 1009.9 - 0.2
22/12:30pm 6.2 -3.8 4.5 89 0.7 NNW 46 54 25 29 1010.2 - 0.2
22/12:00pm 6.1 -3.0 4.1 87 0.9 NNW 41 48 22 26 1010.7 1011.0 0.2
22/11:30am 6.3 -1.6 4.3 87 0.9 NNW 35 43 19 23 1011.1 - 0.0
22/11:00am 6.1 -2.3 3.8 85 1.0 NNW 37 46 20 25 1011.1 - 0.0
22/10:30am 6.0 -1.6 3.7 85 1.0 NW 33 41 18 22 1011.0 - 0.0
22/10:00am 5.9 -3.8 3.9 87 0.8 NW 44 56 24 30 1011.3 - 0.0
22/09:30am 5.9 -2.1 3.6 85 1.0 NW 35 43 19 23 1011.2 - 0.0
22/09:00am 5.7 -3.9 3.2 84 1.0 NW 43 48 23 26 1011.3 1011.6 2.2
22/08:30am 5.6 -4.7 2.8 82 1.1 NW 46 56 25 30 1011.2 - 2.2
22/08:00am 5.7 -4.6 2.7 81 1.2 NW 46 56 25 30 1011.1 - 2.2
22/07:30am 5.3 -5.0 2.5 82 1.1 NW 46 59 25 32 1010.8 - 2.2
22/07:00am 5.4 -5.6 2.9 84 1.0 NW 50 61 27 33 1010.9 - 2.2
22/06:30am 5.2 -4.6 3.1 86 0.9 NW 44 57 24 31 1010.6 - 2.2
22/06:00am 5.0 -6.1 2.7 85 0.9 NW 50 61 27 33 1010.5 1010.8 2.2
22/05:46am 5.1 -5.2 2.6 84 1.0 NW 46 65 25 35 1010.0 - 2.2
22/05:30am 5.1 -5.2 2.6 84 1.0 NW 46 54 25 29 1009.9 - 2.2
22/05:00am 4.8 -6.3 2.5 85 0.9 NW 50 63 27 34 1009.7 - 2.2
22/04:30am 4.4 -6.3 2.3 86 0.8 NW 48 56 26 30 1009.7 - 2.2
22/04:00am 4.5 -5.9 2.0 84 1.0 NW 46 61 25 33 1009.4 - 2.0
22/03:30am 4.6 -5.5 1.8 82 1.1 NW 44 54 24 29 1009.5 - 1.6
22/03:00am 4.1 -6.1 1.1 81 1.2 NW 44 54 24 29 1009.6 1009.9 1.6
22/02:30am 4.0 -7.5 0.2 76 1.4 NW 50 61 27 33 1009.5 - 1.6
22/02:00am 3.6 -8.3 -0.6 74 1.5 WNW 52 61 28 33 1009.5 - 1.6
22/01:30am 3.0 -8.3 -1.4 73 1.6 WNW 48 61 26 33 1009.4 - 1.4
22/01:00am 2.7 -8.3 -2.2 70 1.7 WNW 46 57 25 31 1009.3 - 1.2
22/12:30am 2.4 -8.3 -2.7 69 1.7 WNW 44 54 24 29 1008.9 - 1.0
22/12:00am 2.1 -9.1 -3.4 67 1.8 W 46 56 25 30 1008.5 1008.8 1.0
 
Date/Time
EST
Temp
°C
App
Temp
°C
Dew
Point
°C
Rel
Hum
%
Delta-T
°C
Wind Press
QNH
hPa
Press
MSL
hPa
Rain since
9am
mm
Dir  Spd
km/h
Gust
km/h
Spd
kts
Gust
kts
21/11:30pm 1.7 -9.6 -5.0 61 2.3 W 46 57 25 31 1008.4 - 0.8
21/11:00pm 1.6 -10.5 -5.3 60 2.3 W 50 59 27 32 1007.8 - 0.8
21/10:30pm 1.9 -9.6 -2.8 71 1.6 W 48 59 26 32 1007.0 - 0.8
21/10:00pm 1.4 -10.5 -3.3 71 1.7 W 50 69 27 37 1006.7 - 0.8
21/09:42pm 0.6 -10.4 -2.3 81 1.0 W 46 65 25 35 1006.5 - 0.8
21/09:30pm 1.7 -9.5 -3.6 68 1.9 W 46 63 25 34 1006.4 - 0.8
21/09:15pm 1.5 -10.5 -4.1 66 1.9 W 50 70 27 38 1006.1 - 0.8
21/09:00pm 1.2 -12.1 -3.8 69 1.7 W 57 69 31 37 1005.4 1005.7 0.8
21/08:30pm 1.2 -11.2 -3.8 69 1.7 W 52 80 28 43 1004.7 - 0.8
21/08:00pm 1.2 -10.2 -2.2 78 1.2 W 48 76 26 41 1003.5 - 0.8
21/07:39pm 0.9 -12.3 -3.0 75 1.4 W 57 76 31 41 1002.8 - 0.8
21/07:35pm 0.9 -13.0 -2.8 76 1.3 W 61 76 33 41 1002.8 - 0.8
21/07:30pm 0.6 -9.3 -3.5 74 1.4 W 39 67 21 36 1002.5 - 0.8
21/07:00pm 0.2 -11.4 -3.5 76 1.2 W 48 74 26 40 1001.2 - 0.8
21/06:56pm 0.2 -12.8 -2.7 81 1.0 W 56 74 30 40 1001.6 - 0.8
21/06:51pm 1.6 -11.9 -2.0 77 1.2 W 59 69 32 37 1001.1 - 0.8
21/06:30pm 1.9 -8.0 -3.8 66 1.9 W 39 69 21 37 1000.2 - 0.8
21/06:23pm 1.7 -9.6 -4.6 63 2.1 W 46 69 25 37 999.8 - 0.8
21/06:20pm 1.7 -6.5 -4.4 64 2.1 WSW 30 48 16 26 999.8 - 0.8
21/06:19pm 1.7 -7.5 -4.6 63 2.1 SW 35 48 19 26 999.8 - 0.8
21/06:00pm 1.5 -10.0 -2.6 74 1.4 W 48 69 26 37 998.6 998.9 0.8
21/05:34pm 1.2 -10.6 -2.2 78 1.2 W 50 69 27 37 997.6 - 0.8
21/05:30pm 1.2 -10.4 -1.0 85 0.8 W 50 67 27 36 997.5 - 0.8
21/05:03pm 0.8 -12.2 -1.3 86 0.7 W 57 76 31 41 996.7 - 0.8
21/05:00pm 0.5 -13.7 -2.0 83 0.9 W 63 76 34 41 996.6 - 0.8
21/04:31pm 2.0 -11.2 -3.3 68 1.8 W 57 76 31 41 995.5 - 0.8
21/04:30pm 2.1 -11.5 -3.0 69 1.7 W 59 76 32 41 995.5 - 0.8
21/04:17pm 2.1 -12.6 -2.6 71 1.6 W 65 87 35 47 994.8 - 0.8
21/04:10pm 1.6 -14.7 -4.9 62 2.2 W 72 82 39 44 994.3 - 0.8
21/04:00pm 1.2 -10.7 -3.5 71 1.6 W 50 87 27 47 994.0 - 0.8
21/03:30pm 0.8 -12.3 -3.7 72 1.5 W 56 85 30 46 993.2 - 0.8
21/03:00pm 1.7 -11.3 -2.8 72 1.5 W 56 76 30 41 992.2 992.5 0.6
21/02:30pm 1.4 -12.3 -4.2 66 1.9 W 59 78 32 42 991.2 - 0.6
21/02:02pm 2.1 -12.2 -2.2 73 1.5 W 63 83 34 45 990.2 - 0.6
21/02:00pm 2.3 -12.0 -2.4 71 1.6 W 63 80 34 43 990.0 - 0.6
21/01:30pm 1.4 -11.1 -2.0 78 1.2 W 54 74 29 40 989.2 - 0.6
21/01:00pm 0.8 -11.7 -2.1 81 1.0 W 54 80 29 43 988.2 - 0.6
21/12:30pm 1.9 -13.0 -1.5 78 1.2 W 67 85 36 46 986.9 - 0.4
21/12:00pm 1.2 -13.7 -1.4 83 0.9 WNW 67 89 36 48 985.6 985.9 0.2
21/11:30am 3.2 -10.9 -1.0 74 1.5 WNW 63 83 34 45 984.5 - 0.2
21/11:00am 1.2 -15.4 -1.4 83 0.9 WNW 76 104 41 56 985.1 - 0.0
21/10:45am 3.1 -13.2 -2.2 68 1.9 NW 74 93 40 50 984.7 - 0.0
21/10:40am 3.2 -13.5 -1.7 70 1.7 NW 76 83 41 45 984.4 - 0.0
21/10:37am 3.0 -9.8 -1.2 74 1.5 NW 56 74 30 40 984.6 - 0.0
21/10:30am 2.3 -10.7 -1.0 79 1.2 NW 57 72 31 39 984.8 - 0.0
21/10:00am 2.7 -11.9 -2.2 70 1.7 NW 65 83 35 45 985.0 - 0.0
21/09:30am 2.5 -10.7 -2.8 68 1.8 NW 57 78 31 42 985.1 - 0.0
21/09:28am 2.5 -10.0 -1.8 73 1.5 NW 54 74 29 40 985.1 - 0.0
21/09:20am 2.1 -10.3 -1.2 79 1.2 NW 54 61 29 33 985.2 - 0.0
21/09:09am 1.1 -11.4 -1.5 83 0.9 W 54 67 29 36 985.3 - 0.0
21/09:03am 2.2 -10.5 -0.7 81 1.0 NW 56 83 30 45 985.3 - 0.0
21/09:00am 1.9 -10.5 -1.0 81 1.1 NW 54 70 29 38 985.3 985.6 10.4
21/08:44am 1.4 -12.6 -0.5 87 0.7 WNW 63 82 34 44 985.6 - 10.4
21/08:30am 2.5 -12.0 -1.3 76 1.4 NW 65 78 35 42 985.4 - 10.2
21/08:00am 2.9 -10.5 -1.3 74 1.5 WNW 59 74 32 40 985.1 - 10.2
21/07:30am 2.5 -10.8 -0.4 81 1.1 WNW 59 72 32 39 984.8 - 10.2
21/07:00am 2.2 -11.8 -0.2 84 0.9 WNW 63 82 34 44 984.2 - 10.0
21/06:54am 2.9 -10.4 -0.5 78 1.2 WNW 59 80 32 43 984.2 - 10.0
21/06:30am 3.0 -10.7 -0.8 76 1.4 WNW 61 76 33 41 984.0 - 10.0
21/06:00am 2.7 -11.3 -0.6 79 1.2 WNW 63 83 34 45 983.7 984.0 9.8
21/05:52am 3.4 -12.2 0.3 80 1.2 WNW 72 93 39 50 983.8 - 9.8
21/05:49am 4.1 -13.0 0.6 78 1.3 WNW 80 93 43 50 983.2 - 9.8
21/05:37am 4.4 -8.4 0.2 74 1.6 WNW 57 76 31 41 983.2 - 9.8
21/05:30am 4.3 -8.9 -0.1 73 1.7 WNW 59 72 32 39 983.2 - 9.8
21/05:00am 4.5 -9.0 0.5 75 1.5 WNW 61 78 33 42 982.9 - 9.8
21/04:30am 5.2 -8.7 0.6 72 1.8 NW 63 78 34 42 982.4 - 9.8
21/04:00am 5.4 -8.1 0.8 72 1.8 NW 61 76 33 41 982.3 - 9.8
21/03:39am 5.5 -7.9 1.4 75 1.6 NW 61 80 33 43 982.3 - 9.8
21/03:30am 5.5 -8.6 1.4 75 1.6 NW 65 76 35 41 981.9 - 9.8
21/03:03am 5.8 -4.0 3.5 85 1.0 NW 44 63 24 34 982.2 - 9.8
21/03:00am 5.8 -4.0 3.6 86 0.9 NW 44 56 24 30 982.2 982.5 9.8
21/02:30am 6.2 -3.3 4.0 86 0.9 NW 43 61 23 33 982.3 - 9.8
21/02:29am 6.2 -3.3 3.9 85 1.0 NNW 43 61 23 33 982.2 - 9.8
21/02:00am 6.1 -6.0 4.1 87 0.9 NNW 57 72 31 39 982.3 - 9.8
21/01:30am 6.1 -3.8 4.6 90 0.6 N 46 57 25 31 982.7 - 9.8
21/01:00am 6.0 -1.9 4.2 88 0.8 NNW 35 41 19 22 982.9 - 9.8
21/12:30am 6.2 -2.2 3.7 84 1.1 NNW 37 44 20 24 983.2 - 9.8
21/12:00am 6.4 -4.1 3.4 81 1.3 NW 48 59 26 32 983.7 984.0 9.8
 
Date/Time
EST
Temp
°C
App
Temp
°C
Dew
Point
°C
Rel
Hum
%
Delta-T
°C
Wind Press
QNH
hPa
Press
MSL
hPa
Rain since
9am
mm
Dir  Spd
km/h
Gust
km/h
Spd
kts
Gust
kts
20/11:30pm 6.4 -4.6 3.0 79 1.4 NW 50 61 27 33 984.0 - 9.8
20/11:00pm 6.5 -5.5 3.5 81 1.3 NW 56 70 30 38 984.5 - 9.8
20/10:30pm 6.4 -3.6 4.2 86 0.9 NW 46 61 25 33 984.1 - 9.8
20/10:00pm 6.5 -4.9 4.7 88 0.8 NNW 54 65 29 35 984.1 - 9.8
20/09:30pm 6.7 -6.0 4.9 88 0.8 NNW 61 72 33 39 984.0 - 9.8
20/09:00pm 6.8 -6.3 4.8 87 0.9 NNW 63 78 34 42 983.8 984.1 9.8
20/08:30pm 7.0 -6.9 5.0 87 0.9 NNW 67 78 36 42 983.6 - 9.8
20/08:00pm 7.1 -6.7 5.1 87 0.9 NNW 67 78 36 42 983.6 - 9.8
20/07:30pm 7.1 -6.8 4.9 86 1.0 NNW 67 83 36 45 983.5 - 9.8
20/07:00pm 7.1 -6.4 5.1 87 0.9 NNW 65 80 35 43 983.7 - 9.8

Other Formats:

Comma delimited format used in spreadsheet applications
http://www.bom.gov.au/fwo/IDT60803/IDT60803.94998.axf

JavaScript Object Notation format (JSON) in row-major order
http://www.bom.gov.au/fwo/IDT60803/IDT60803.94998.json